createdAt,value
2022-08-10T00:00:36.201Z,20.00
2022-08-10T00:03:03.019Z,20.00
2022-08-10T00:05:43.873Z,20.00
2022-08-10T00:08:22.733Z,19.90
2022-08-10T00:10:55.861Z,19.90
2022-08-10T00:13:24.013Z,19.90
2022-08-10T00:15:54.125Z,19.80
2022-08-10T00:18:34.739Z,19.80
2022-08-10T00:21:07.758Z,19.80
2022-08-10T00:23:35.527Z,19.90
2022-08-10T00:26:02.797Z,19.90
2022-08-10T00:28:30.087Z,19.80
2022-08-10T00:30:57.332Z,19.70
2022-08-10T00:33:24.551Z,19.70
2022-08-10T00:35:51.602Z,19.80
2022-08-10T00:38:18.465Z,19.80
2022-08-10T00:40:46.151Z,19.80
2022-08-10T00:43:13.039Z,19.80
2022-08-10T00:45:40.219Z,19.70
2022-08-10T00:48:07.170Z,19.70
2022-08-10T00:50:34.429Z,19.70
2022-08-10T00:53:01.614Z,19.70
2022-08-10T00:55:28.900Z,19.70
2022-08-10T00:57:56.644Z,19.80
2022-08-10T01:00:24.928Z,19.70
2022-08-10T01:02:51.968Z,19.70
2022-08-10T01:05:20.499Z,19.70
2022-08-10T01:08:02.819Z,19.70
2022-08-10T01:10:33.995Z,19.70
2022-08-10T01:13:15.861Z,19.60
2022-08-10T01:15:51.870Z,19.60
2022-08-10T01:18:38.069Z,19.70
2022-08-10T01:21:23.536Z,19.70
2022-08-10T01:24:17.887Z,19.70
2022-08-10T01:27:15.740Z,19.70
2022-08-10T01:30:07.801Z,19.70
2022-08-10T01:33:12.470Z,19.60
2022-08-10T01:36:08.123Z,19.50
2022-08-10T01:38:41.338Z,19.50
2022-08-10T01:41:46.628Z,19.40
2022-08-10T01:44:23.910Z,19.50
2022-08-10T01:46:57.147Z,19.40
2022-08-10T01:49:26.291Z,19.30
2022-08-10T01:52:00.567Z,19.30
2022-08-10T01:54:30.144Z,19.30
2022-08-10T01:56:59.847Z,19.30
2022-08-10T01:59:33.184Z,19.30
2022-08-10T02:02:09.931Z,19.40
2022-08-10T02:04:40.622Z,19.40
2022-08-10T02:07:13.322Z,19.30
2022-08-10T02:09:45.187Z,19.20
2022-08-10T02:12:16.502Z,19.10
2022-08-10T02:15:02.189Z,19.10
2022-08-10T02:18:00.668Z,19.20
2022-08-10T02:20:25.433Z,19.20
2022-08-10T02:23:11.596Z,18.90
2022-08-10T02:25:43.629Z,18.90
2022-08-10T02:28:27.145Z,18.70
2022-08-10T02:31:21.170Z,18.60
2022-08-10T02:33:57.395Z,18.70
2022-08-10T02:36:29.460Z,18.70
2022-08-10T02:39:01.008Z,18.70
2022-08-10T02:42:18.601Z,18.60
2022-08-10T02:45:22.200Z,18.60
2022-08-10T02:47:52.242Z,18.50
2022-08-10T02:50:41.361Z,18.50
2022-08-10T02:53:54.583Z,18.50
2022-08-10T02:56:35.092Z,18.50
2022-08-10T02:59:13.586Z,18.50
2022-08-10T03:01:47.667Z,18.50
2022-08-10T03:04:55.887Z,18.50
2022-08-10T03:07:43.766Z,18.40
2022-08-10T03:10:16.365Z,18.40
2022-08-10T03:12:44.425Z,18.40
2022-08-10T03:15:15.554Z,18.50
2022-08-10T03:17:57.653Z,18.60
2022-08-10T03:20:38.274Z,18.60
2022-08-10T03:23:13.973Z,18.60
2022-08-10T03:25:52.600Z,18.60
2022-08-10T03:28:22.905Z,18.60
2022-08-10T03:30:49.999Z,18.60
2022-08-10T03:33:17.847Z,18.60
2022-08-10T03:36:41.907Z,18.60
2022-08-10T03:38:31.594Z,18.70
2022-08-10T03:41:02.585Z,18.70
2022-08-10T03:43:30.131Z,18.60
2022-08-10T03:45:59.686Z,18.50
2022-08-10T03:48:32.314Z,18.50
2022-08-10T03:51:18.390Z,18.50
2022-08-10T03:54:03.726Z,18.60
2022-08-10T03:56:38.298Z,18.70
2022-08-10T03:59:07.403Z,18.70
2022-08-10T04:02:44.140Z,18.80
2022-08-10T04:04:24.533Z,18.80
2022-08-10T04:06:56.954Z,19.10
2022-08-10T04:09:54.706Z,19.60
2022-08-10T04:12:19.195Z,20.30
2022-08-10T04:14:49.620Z,20.40
2022-08-10T04:18:03.940Z,20.30
2022-08-10T04:20:16.299Z,20.20
2022-08-10T04:22:44.766Z,20.30
2022-08-10T04:25:14.874Z,20.50
2022-08-10T04:27:42.441Z,20.70
2022-08-10T04:30:10.354Z,20.90
2022-08-10T04:32:38.033Z,21.10
2022-08-10T04:35:07.177Z,21.10
2022-08-10T04:37:37.349Z,21.00
2022-08-10T04:40:29.647Z,21.00
2022-08-10T04:43:13.590Z,21.00
2022-08-10T04:45:49.167Z,21.10
2022-08-10T04:48:41.387Z,21.40
2022-08-10T04:51:16.902Z,21.70
2022-08-10T04:54:04.664Z,21.70
2022-08-10T04:56:38.705Z,21.90
2022-08-10T04:59:06.931Z,22.30
2022-08-10T05:02:29.093Z,22.50
2022-08-10T05:04:36.983Z,22.20
2022-08-10T05:07:05.613Z,22.00
2022-08-10T05:09:32.424Z,22.00
2022-08-10T05:11:59.199Z,21.70
2022-08-10T05:14:26.016Z,21.70
2022-08-10T05:16:52.877Z,21.70
2022-08-10T05:20:01.707Z,21.50
2022-08-10T05:22:06.750Z,21.50
2022-08-10T05:24:33.538Z,21.50
2022-08-10T05:27:09.892Z,21.40
2022-08-10T05:29:37.904Z,21.50
2022-08-10T05:32:05.204Z,21.40
2022-08-10T05:34:32.023Z,21.30
2022-08-10T05:36:58.889Z,21.30
2022-08-10T05:39:30.469Z,21.20
2022-08-10T05:42:01.425Z,21.30
2022-08-10T05:44:29.504Z,21.10
2022-08-10T05:46:56.639Z,20.90
2022-08-10T05:49:23.589Z,20.90
2022-08-10T05:51:50.761Z,20.90
2022-08-10T05:54:17.914Z,20.80
2022-08-10T05:56:56.746Z,20.70
2022-08-10T06:00:11.251Z,20.80
2022-08-10T06:02:43.836Z,20.90
2022-08-10T06:05:23.401Z,21.10
2022-08-10T06:08:17.537Z,21.00
2022-08-10T06:12:16.678Z,21.30
2022-08-10T06:14:16.573Z,21.40
2022-08-10T06:16:45.649Z,21.30
2022-08-10T06:19:15.246Z,21.30
2022-08-10T06:22:00.933Z,21.40
2022-08-10T06:24:36.319Z,21.20
2022-08-10T06:27:03.378Z,21.20
2022-08-10T06:29:33.751Z,21.10
2022-08-10T06:32:01.872Z,21.20
2022-08-10T06:34:39.513Z,21.20
2022-08-10T06:37:08.066Z,21.10
2022-08-10T06:39:36.681Z,21.10
2022-08-10T06:42:19.885Z,21.20
2022-08-10T06:44:58.216Z,21.00
2022-08-10T06:47:51.689Z,21.10
2022-08-10T06:50:56.176Z,21.10
2022-08-10T06:53:25.769Z,21.10
2022-08-10T06:56:15.880Z,21.00
2022-08-10T06:59:22.005Z,21.20
2022-08-10T07:02:02.019Z,21.20
2022-08-10T07:04:39.159Z,21.40
2022-08-10T07:07:07.824Z,21.50
2022-08-10T07:09:39.057Z,21.30
2022-08-10T07:12:09.454Z,21.30
2022-08-10T07:14:42.551Z,21.30
2022-08-10T07:17:19.204Z,21.50
2022-08-10T07:19:52.430Z,21.50
2022-08-10T07:23:54.612Z,21.60
2022-08-10T07:25:15.238Z,21.60
2022-08-10T07:27:59.597Z,21.50
2022-08-10T07:30:32.313Z,21.50
2022-08-10T07:33:01.684Z,21.30
2022-08-10T07:35:37.045Z,21.40
2022-08-10T07:38:16.103Z,21.50
2022-08-10T07:40:44.571Z,21.70
2022-08-10T07:43:12.967Z,22.00
2022-08-10T07:45:40.585Z,22.00
2022-08-10T07:48:16.239Z,22.30
2022-08-10T07:50:44.623Z,22.50
2022-08-10T07:53:17.287Z,22.40
2022-08-10T07:56:05.543Z,22.40
2022-08-10T07:58:39.560Z,22.30
2022-08-10T08:01:15.644Z,22.20
2022-08-10T08:03:47.224Z,22.10
2022-08-10T08:06:36.272Z,22.10
2022-08-10T08:09:03.809Z,22.10
2022-08-10T08:11:32.009Z,22.20
2022-08-10T08:14:00.569Z,22.50
2022-08-10T08:16:28.015Z,22.50
2022-08-10T08:19:26.341Z,22.60
2022-08-10T08:24:09.882Z,22.50
2022-08-10T08:24:35.580Z,22.60
2022-08-10T08:27:04.407Z,22.50
2022-08-10T08:29:37.085Z,22.50
2022-08-10T08:32:05.706Z,22.60
2022-08-10T08:34:34.405Z,22.60
2022-08-10T08:37:03.961Z,22.80
2022-08-10T08:39:36.147Z,22.90
2022-08-10T08:42:28.183Z,22.80
2022-08-10T08:45:16.342Z,23.00
2022-08-10T08:48:03.364Z,23.30
2022-08-10T08:51:08.472Z,23.50
2022-08-10T08:54:02.719Z,23.50
2022-08-10T08:56:50.159Z,23.50
2022-08-10T08:59:35.135Z,23.30
2022-08-10T09:02:20.392Z,23.30
2022-08-10T09:04:59.101Z,23.30
2022-08-10T09:07:59.923Z,23.20
2022-08-10T09:10:50.197Z,23.10
2022-08-10T09:13:34.604Z,22.90
2022-08-10T09:16:40.211Z,23.10
2022-08-10T09:19:50.298Z,23.10
2022-08-10T09:22:37.973Z,23.30
2022-08-10T09:25:18.944Z,23.30
2022-08-10T09:27:49.536Z,23.40
2022-08-10T09:30:29.295Z,23.50
2022-08-10T09:36:29.544Z,23.40
2022-08-10T09:37:21.611Z,23.50
2022-08-10T09:40:12.753Z,23.70
2022-08-10T09:43:28.601Z,23.60
2022-08-10T09:46:27.538Z,23.40
2022-08-10T09:49:04.419Z,23.30
2022-08-10T09:51:47.587Z,23.60
2022-08-10T09:54:42.792Z,23.40
2022-08-10T09:57:55.201Z,23.30
2022-08-10T10:00:15.331Z,23.30
2022-08-10T10:03:17.731Z,23.30
2022-08-10T10:06:14.762Z,23.40
2022-08-10T10:08:47.842Z,23.60
2022-08-10T10:11:28.885Z,23.60
2022-08-10T10:14:30.475Z,23.90
2022-08-10T10:17:12.525Z,24.10
2022-08-10T10:20:11.181Z,24.20
2022-08-10T10:23:03.061Z,24.30
2022-08-10T10:25:50.652Z,24.10
2022-08-10T10:29:30.905Z,23.90
2022-08-10T10:32:01.194Z,23.90
2022-08-10T10:34:49.718Z,23.90
2022-08-10T10:37:19.858Z,24.20
2022-08-10T10:39:54.406Z,24.40
2022-08-10T10:42:46.872Z,24.40
2022-08-10T10:45:27.283Z,24.40
2022-08-10T10:48:02.295Z,24.50
2022-08-10T10:50:59.148Z,24.30
2022-08-10T10:53:45.989Z,23.90
2022-08-10T10:56:34.670Z,23.90
2022-08-10T10:59:55.641Z,24.00
2022-08-10T11:02:32.961Z,24.20
2022-08-10T11:05:24.309Z,24.20
2022-08-10T11:07:57.957Z,24.20
2022-08-10T11:10:47.138Z,24.10
2022-08-10T11:14:26.907Z,23.90
2022-08-10T11:16:26.826Z,24.00
2022-08-10T11:19:07.344Z,23.70
2022-08-10T11:22:26.372Z,23.70
2022-08-10T11:25:15.930Z,23.50
2022-08-10T11:28:01.494Z,23.50
2022-08-10T11:30:58.324Z,23.50
2022-08-10T11:34:04.027Z,23.30
2022-08-10T11:36:43.151Z,23.30
2022-08-10T11:39:37.064Z,23.40
2022-08-10T11:42:47.111Z,23.60
2022-08-10T11:45:21.840Z,23.70
2022-08-10T11:47:53.418Z,23.50
2022-08-10T11:50:33.924Z,23.50
2022-08-10T11:53:13.519Z,23.70
2022-08-10T11:55:44.535Z,23.60
2022-08-10T11:58:32.826Z,23.50
2022-08-10T12:01:07.644Z,23.50
2022-08-10T12:03:38.116Z,23.80
2022-08-10T12:06:09.812Z,23.90
2022-08-10T12:10:07.220Z,23.90
2022-08-10T12:11:29.147Z,23.80
2022-08-10T12:14:23.470Z,23.70
2022-08-10T12:17:19.303Z,23.60
2022-08-10T12:20:10.754Z,23.60
2022-08-10T12:22:57.345Z,23.50
2022-08-10T12:25:56.755Z,23.50
2022-08-10T12:28:50.724Z,23.50
2022-08-10T12:31:31.347Z,23.50
2022-08-10T12:34:24.529Z,23.60
2022-08-10T12:37:22.944Z,23.60
2022-08-10T12:40:33.970Z,23.50
2022-08-10T12:44:05.744Z,23.50
2022-08-10T12:46:20.766Z,23.60
2022-08-10T12:48:54.484Z,23.80
2022-08-10T12:51:30.347Z,23.80
2022-08-10T12:54:01.951Z,23.60
2022-08-10T12:56:35.780Z,23.60
2022-08-10T12:59:09.544Z,23.60
2022-08-10T13:02:07.836Z,23.50
2022-08-10T13:04:37.245Z,23.50
2022-08-10T13:07:06.549Z,23.40
2022-08-10T13:09:56.070Z,23.60
2022-08-10T13:12:36.917Z,23.60
2022-08-10T13:15:48.541Z,23.60
2022-08-10T13:18:19.697Z,23.50
2022-08-10T13:20:52.368Z,23.50
2022-08-10T13:23:29.171Z,23.30
2022-08-10T13:25:59.540Z,23.30
2022-08-10T13:29:02.519Z,23.40
2022-08-10T13:32:09.435Z,23.20
2022-08-10T13:34:42.676Z,23.30
2022-08-10T13:37:15.798Z,23.20
2022-08-10T13:39:57.654Z,23.20
2022-08-10T13:42:31.848Z,23.20
2022-08-10T13:45:16.364Z,23.10
2022-08-10T13:47:50.895Z,23.00
2022-08-10T13:50:33.461Z,22.90
2022-08-10T13:53:04.568Z,23.00
2022-08-10T13:55:48.750Z,23.00
2022-08-10T13:58:37.090Z,23.00
2022-08-10T14:01:13.788Z,22.90
2022-08-10T14:03:44.441Z,23.00
2022-08-10T14:06:14.694Z,23.10
2022-08-10T14:08:57.470Z,23.00
2022-08-10T14:11:25.866Z,23.00
2022-08-10T14:13:57.404Z,23.10
2022-08-10T14:16:25.356Z,23.20
2022-08-10T14:18:55.436Z,23.20
2022-08-10T14:21:22.584Z,23.30
2022-08-10T14:23:53.273Z,23.20
2022-08-10T14:26:29.703Z,23.20
2022-08-10T14:29:02.728Z,23.30
2022-08-10T14:31:33.625Z,23.30
2022-08-10T14:34:03.810Z,23.20
2022-08-10T14:36:43.877Z,23.10
2022-08-10T14:39:27.871Z,23.10
2022-08-10T14:42:02.462Z,23.00
2022-08-10T14:44:47.589Z,23.00
2022-08-10T14:47:52.276Z,23.10
2022-08-10T14:50:07.137Z,22.90
2022-08-10T14:52:44.073Z,22.90
2022-08-10T14:55:19.676Z,22.90
2022-08-10T14:58:20.162Z,22.90
2022-08-10T15:00:43.114Z,22.90
2022-08-10T15:04:01.685Z,22.90
2022-08-10T15:06:17.091Z,22.80
2022-08-10T15:08:47.256Z,22.90
2022-08-10T15:12:13.696Z,23.00
2022-08-10T15:14:20.067Z,22.80
2022-08-10T15:16:57.644Z,22.70
2022-08-10T15:20:03.696Z,22.60
2022-08-10T15:22:37.665Z,22.50
2022-08-10T15:25:16.008Z,22.60
2022-08-10T15:27:54.478Z,22.50
2022-08-10T15:30:29.804Z,22.60
2022-08-10T15:33:21.427Z,22.60
2022-08-10T15:36:24.206Z,22.50
2022-08-10T15:38:59.976Z,22.50
2022-08-10T15:41:57.567Z,22.40
2022-08-10T15:44:40.276Z,22.40
2022-08-10T15:47:45.431Z,22.30
2022-08-10T15:50:25.188Z,22.30
2022-08-10T15:53:10.033Z,22.20
2022-08-10T15:55:45.939Z,22.30
2022-08-10T15:58:37.633Z,22.30
2022-08-10T16:02:14.618Z,22.30
2022-08-10T16:04:08.695Z,22.20
2022-08-10T16:06:53.847Z,22.20
2022-08-10T16:10:26.704Z,22.20
2022-08-10T16:12:16.476Z,22.20
2022-08-10T16:14:47.994Z,22.20
2022-08-10T16:17:16.260Z,22.10
2022-08-10T16:19:50.873Z,22.10
2022-08-10T16:22:34.269Z,22.10
2022-08-10T16:25:14.182Z,22.10
2022-08-10T16:27:43.124Z,22.00
2022-08-10T16:30:10.979Z,22.00
2022-08-10T16:32:39.517Z,22.00
2022-08-10T16:35:09.712Z,21.90
2022-08-10T16:37:57.778Z,21.80
2022-08-10T16:40:29.246Z,21.80
2022-08-10T16:42:58.140Z,21.90
2022-08-10T16:45:35.462Z,21.90
2022-08-10T16:48:05.180Z,21.80
2022-08-10T16:50:55.658Z,21.90
2022-08-10T16:53:26.125Z,21.90
2022-08-10T16:55:56.596Z,21.90
2022-08-10T16:58:29.006Z,21.80
2022-08-10T17:01:11.472Z,21.80
2022-08-10T17:04:06.569Z,21.80
2022-08-10T17:06:36.183Z,21.80
2022-08-10T17:09:06.367Z,21.80
2022-08-10T17:11:37.590Z,21.70
2022-08-10T17:14:08.214Z,21.80
2022-08-10T17:16:45.730Z,21.90
2022-08-10T17:19:15.910Z,21.80
2022-08-10T17:21:51.436Z,21.70
2022-08-10T17:24:24.173Z,21.70
2022-08-10T17:26:51.564Z,21.70
2022-08-10T17:29:57.642Z,21.70
2022-08-10T17:32:44.571Z,21.60
2022-08-10T17:35:22.524Z,21.50
2022-08-10T17:38:10.791Z,21.60
2022-08-10T17:40:48.974Z,21.50
2022-08-10T17:43:58.572Z,21.50
2022-08-10T17:46:13.998Z,21.40
2022-08-10T17:48:43.310Z,21.40
2022-08-10T17:51:13.983Z,21.40
2022-08-10T17:53:44.530Z,21.40
2022-08-10T17:56:12.684Z,21.50
2022-08-10T17:58:45.809Z,21.50
2022-08-10T18:01:40.738Z,21.40
2022-08-10T18:04:12.253Z,21.30
2022-08-10T18:06:41.263Z,21.20
2022-08-10T18:09:24.267Z,21.30
2022-08-10T18:11:58.786Z,21.20
2022-08-10T18:14:31.152Z,21.20
2022-08-10T18:17:06.141Z,21.10
2022-08-10T18:19:34.520Z,21.10
2022-08-10T18:22:02.666Z,21.20
2022-08-10T18:24:30.697Z,21.10
2022-08-10T18:27:02.561Z,21.10
2022-08-10T18:29:31.256Z,21.10
2022-08-10T18:32:01.838Z,21.00
2022-08-10T18:34:30.862Z,21.00
2022-08-10T18:36:57.965Z,21.00
2022-08-10T18:39:35.228Z,20.90
2022-08-10T18:42:31.413Z,20.90
2022-08-10T18:45:08.246Z,21.00
2022-08-10T18:47:59.236Z,21.00
2022-08-10T18:50:34.080Z,21.00
2022-08-10T18:53:08.754Z,21.00
2022-08-10T18:55:46.189Z,20.90
2022-08-10T18:58:44.404Z,20.90
2022-08-10T19:01:17.818Z,20.90
2022-08-10T19:04:13.580Z,20.90
2022-08-10T19:07:15.686Z,20.90
2022-08-10T19:10:05.884Z,20.80
2022-08-10T19:12:43.807Z,20.80
2022-08-10T19:15:19.578Z,20.90
2022-08-10T19:18:08.209Z,20.90
2022-08-10T19:20:54.256Z,21.00
2022-08-10T19:23:49.028Z,20.90
2022-08-10T19:26:44.737Z,20.80
2022-08-10T19:30:12.512Z,20.70
2022-08-10T19:32:52.107Z,20.60
2022-08-10T19:36:03.200Z,20.60
2022-08-10T19:39:07.695Z,20.50
2022-08-10T19:41:45.256Z,20.60
2022-08-10T19:44:15.232Z,20.70
2022-08-10T19:46:53.883Z,20.80
2022-08-10T19:49:30.063Z,20.80
2022-08-10T19:52:10.965Z,20.60
2022-08-10T19:55:04.602Z,20.60
2022-08-10T19:57:36.201Z,20.60
2022-08-10T20:00:18.007Z,20.60
2022-08-10T20:03:29.897Z,20.40
2022-08-10T20:06:22.527Z,20.40
2022-08-10T20:09:00.959Z,20.50
2022-08-10T20:12:03.616Z,20.50
2022-08-10T20:14:39.772Z,20.40
2022-08-10T20:17:26.127Z,20.40
2022-08-10T20:20:12.187Z,20.50
2022-08-10T20:22:59.124Z,20.30
2022-08-10T20:25:31.463Z,20.30
2022-08-10T20:28:19.520Z,20.40
2022-08-10T20:30:53.415Z,20.30
2022-08-10T20:33:29.313Z,20.30
2022-08-10T20:36:08.905Z,20.40
2022-08-10T20:38:46.439Z,20.30
2022-08-10T20:41:33.233Z,20.40
2022-08-10T20:44:39.350Z,20.20
2022-08-10T20:47:28.536Z,20.10
2022-08-10T20:50:12.872Z,20.10
2022-08-10T20:52:42.545Z,20.20
2022-08-10T20:55:11.450Z,20.10
2022-08-10T20:58:15.812Z,20.10
2022-08-10T21:00:56.201Z,20.00
2022-08-10T21:03:43.628Z,20.00
2022-08-10T21:06:47.859Z,20.10
2022-08-10T21:09:20.717Z,20.00
2022-08-10T21:11:53.533Z,19.90
2022-08-10T21:14:28.358Z,20.00
2022-08-10T21:17:12.961Z,20.00
2022-08-10T21:20:28.790Z,20.20
2022-08-10T21:23:05.243Z,20.20
2022-08-10T21:25:46.547Z,20.20
2022-08-10T21:28:55.435Z,20.10
2022-08-10T21:32:00.333Z,20.10
2022-08-10T21:35:02.823Z,20.20
2022-08-10T21:38:27.624Z,20.10
2022-08-10T21:41:17.498Z,20.00
2022-08-10T21:44:22.998Z,19.90
2022-08-10T21:47:40.047Z,19.80
2022-08-10T21:50:30.803Z,19.90
2022-08-10T21:53:44.544Z,19.70
2022-08-10T21:56:42.846Z,19.80
2022-08-10T21:59:49.000Z,19.60
2022-08-10T22:02:50.464Z,19.50
2022-08-10T22:05:48.011Z,19.40
2022-08-10T22:08:38.436Z,19.40
2022-08-10T22:11:28.972Z,19.40
2022-08-10T22:14:16.237Z,19.40
2022-08-10T22:18:00.221Z,19.40
2022-08-10T22:20:52.333Z,19.30
2022-08-10T22:23:40.513Z,19.40
2022-08-10T22:27:01.428Z,19.40
2022-08-10T22:30:11.929Z,19.50
2022-08-10T22:33:29.985Z,19.50
2022-08-10T22:36:35.202Z,19.50
2022-08-10T22:40:11.735Z,19.50
2022-08-10T22:43:10.598Z,19.50
2022-08-10T22:46:16.244Z,19.30
2022-08-10T22:49:01.826Z,19.30
2022-08-10T22:51:54.285Z,19.20
2022-08-10T22:55:13.370Z,19.20
2022-08-10T22:58:07.368Z,19.30
2022-08-10T23:00:35.353Z,19.30
2022-08-10T23:03:23.025Z,19.30
2022-08-10T23:06:03.995Z,19.40
2022-08-10T23:08:53.063Z,19.40
2022-08-10T23:11:23.650Z,19.50
2022-08-10T23:13:57.442Z,19.40
2022-08-10T23:16:47.106Z,19.20
2022-08-10T23:19:22.608Z,19.10
2022-08-10T23:22:04.105Z,19.10
2022-08-10T23:24:55.109Z,19.10
2022-08-10T23:27:38.980Z,19.10
2022-08-10T23:30:17.946Z,19.20
2022-08-10T23:32:49.970Z,19.10
2022-08-10T23:36:31.497Z,19.00
2022-08-10T23:38:12.403Z,19.10
2022-08-10T23:40:45.619Z,19.20
2022-08-10T23:43:18.824Z,19.10
2022-08-10T23:45:54.413Z,19.20
2022-08-10T23:48:37.223Z,19.20
2022-08-10T23:51:16.084Z,19.20
2022-08-10T23:53:46.455Z,19.20
2022-08-10T23:56:18.158Z,19.30
2022-08-10T23:58:48.065Z,19.30
